createdAt,value
2023-10-02T00:02:40.989Z,101844.75
2023-10-02T00:05:41.867Z,101844.75
2023-10-02T00:08:43.910Z,101833.50
2023-10-02T00:11:43.110Z,101843.34
2023-10-02T00:14:36.382Z,101841.81
2023-10-02T00:17:25.494Z,101846.38
2023-10-02T00:20:22.885Z,101846.47
2023-10-02T00:23:12.661Z,101838.91
2023-10-02T00:26:05.132Z,101850.25
2023-10-02T00:28:53.041Z,101841.56
2023-10-02T00:31:45.608Z,101839.13
2023-10-02T00:34:33.318Z,101838.47
2023-10-02T00:37:21.607Z,101843.00
2023-10-02T00:40:10.555Z,101841.31
2023-10-02T00:43:22.364Z,101836.22
2023-10-02T00:46:24.637Z,101837.25
2023-10-02T00:49:26.605Z,101832.16
2023-10-02T00:52:14.285Z,101826.13
2023-10-02T00:55:06.825Z,101824.41
2023-10-02T00:58:00.475Z,101816.66
2023-10-02T01:00:52.542Z,101818.56
2023-10-02T01:04:00.553Z,101829.25
2023-10-02T01:07:03.409Z,101813.56
2023-10-02T01:10:09.455Z,101825.19
2023-10-02T01:13:03.211Z,101811.41
2023-10-02T01:15:52.152Z,101817.72
2023-10-02T01:18:41.041Z,101812.72
2023-10-02T01:21:29.903Z,101814.53
2023-10-02T01:24:18.281Z,101817.25
2023-10-02T01:27:07.532Z,101810.34
2023-10-02T01:30:15.171Z,101809.81
2023-10-02T01:33:13.977Z,101816.88
2023-10-02T01:36:03.533Z,101808.19
2023-10-02T01:38:56.152Z,101807.53
2023-10-02T01:41:54.020Z,101823.50
2023-10-02T01:44:56.201Z,101807.81
2023-10-02T01:47:44.228Z,101815.84
2023-10-02T01:50:31.872Z,101812.34
2023-10-02T01:53:31.568Z,101810.66
2023-10-02T01:56:21.948Z,101810.84
2023-10-02T01:59:11.398Z,101809.31
2023-10-02T02:02:00.520Z,101811.03
2023-10-02T02:04:49.198Z,101808.66
2023-10-02T02:07:36.810Z,101807.69
2023-10-02T02:10:24.411Z,101801.75
2023-10-02T02:13:12.008Z,101809.69
2023-10-02T02:16:08.819Z,101797.41
2023-10-02T02:18:56.677Z,101808.94
2023-10-02T02:21:44.975Z,101804.59
2023-10-02T02:24:36.000Z,101804.69
2023-10-02T02:27:23.648Z,101798.72
2023-10-02T02:30:12.411Z,101797.88
2023-10-02T02:33:01.781Z,101798.91
2023-10-02T02:35:49.817Z,101792.00
2023-10-02T02:38:39.083Z,101793.06
2023-10-02T02:41:28.898Z,101787.84
2023-10-02T02:44:36.873Z,101789.63
2023-10-02T02:47:24.438Z,101780.88
2023-10-02T02:50:12.022Z,101781.78
2023-10-02T02:53:18.093Z,101781.06
2023-10-02T02:56:25.037Z,101781.97
2023-10-02T02:59:12.751Z,101779.44
2023-10-02T03:02:23.292Z,101772.47
2023-10-02T03:05:12.595Z,101776.88
2023-10-02T03:08:03.347Z,101774.31
2023-10-02T03:10:58.589Z,101776.22
2023-10-02T03:13:48.537Z,101767.56
2023-10-02T03:16:37.687Z,101769.31
2023-10-02T03:19:25.421Z,101762.44
2023-10-02T03:22:13.212Z,101761.69
2023-10-02T03:25:21.470Z,101752.06
2023-10-02T03:28:28.689Z,101752.25
2023-10-02T03:31:35.854Z,101751.47
2023-10-02T03:34:30.907Z,101755.91
2023-10-02T03:37:23.001Z,101757.81
2023-10-02T03:40:15.929Z,101750.06
2023-10-02T03:43:20.334Z,101747.63
2023-10-02T03:46:08.125Z,101751.00
2023-10-02T03:49:02.462Z,101753.72
2023-10-02T03:51:59.794Z,101746.75
2023-10-02T03:54:48.433Z,101751.19
2023-10-02T03:57:48.298Z,101754.84
2023-10-02T04:00:45.497Z,101758.34
2023-10-02T04:03:33.258Z,101761.94
2023-10-02T04:06:34.601Z,101755.13
2023-10-02T04:09:25.078Z,101756.91
2023-10-02T04:12:13.921Z,101759.56
2023-10-02T04:15:05.586Z,101753.44
2023-10-02T04:17:56.999Z,101748.16
2023-10-02T04:20:53.098Z,101751.72
2023-10-02T04:23:41.989Z,101758.81
2023-10-02T04:26:34.660Z,101759.75
2023-10-02T04:29:26.194Z,101758.91
2023-10-02T04:32:16.474Z,101744.81
2023-10-02T04:35:04.912Z,101746.63
2023-10-02T04:37:52.618Z,101746.63
2023-10-02T04:40:52.414Z,101740.59
2023-10-02T04:43:43.094Z,101748.69
2023-10-02T04:46:35.238Z,101753.00
2023-10-02T04:49:22.848Z,101748.69
2023-10-02T04:52:10.833Z,101753.09
2023-10-02T04:55:08.228Z,101756.72
2023-10-02T04:58:14.844Z,101759.44
2023-10-02T05:01:06.256Z,101760.38
2023-10-02T05:03:54.890Z,101747.34
2023-10-02T05:06:46.047Z,101748.19
2023-10-02T05:09:39.868Z,101742.06
2023-10-02T05:12:29.508Z,101734.06
2023-10-02T05:15:22.166Z,101749.16
2023-10-02T05:18:11.079Z,101744.72
2023-10-02T05:21:00.020Z,101745.63
2023-10-02T05:24:03.520Z,101732.53
2023-10-02T05:26:51.310Z,101736.22
2023-10-02T05:29:42.553Z,101752.06
2023-10-02T05:32:33.380Z,101750.44
2023-10-02T05:35:24.983Z,101752.22
2023-10-02T05:38:18.326Z,101754.19
2023-10-02T05:41:13.661Z,101745.34
2023-10-02T05:44:02.723Z,101759.38
2023-10-02T05:47:07.014Z,101762.00
2023-10-02T05:49:55.129Z,101753.25
2023-10-02T05:52:50.028Z,101748.31
2023-10-02T05:55:58.139Z,101756.81
2023-10-02T05:58:45.901Z,101764.72
2023-10-02T06:01:35.689Z,101762.97
2023-10-02T06:04:24.527Z,101760.50
2023-10-02T06:07:20.306Z,101766.34
2023-10-02T06:10:28.304Z,101761.06
2023-10-02T06:13:16.083Z,101765.34
2023-10-02T06:16:04.448Z,101770.53
2023-10-02T06:19:03.073Z,101758.09
2023-10-02T06:21:59.836Z,101764.03
2023-10-02T06:24:49.538Z,101771.75
2023-10-02T06:27:42.993Z,101772.53
2023-10-02T06:30:30.830Z,101777.56
2023-10-02T06:33:23.523Z,101786.13
2023-10-02T06:36:12.113Z,101785.13
2023-10-02T06:39:01.588Z,101786.72
2023-10-02T06:41:50.813Z,101790.03
2023-10-02T06:44:43.194Z,101783.72
2023-10-02T06:47:36.379Z,101786.09
2023-10-02T06:50:36.026Z,101784.97
2023-10-02T06:53:26.011Z,101782.06
2023-10-02T06:56:16.886Z,101777.34
2023-10-02T06:59:14.420Z,101785.84
2023-10-02T07:02:08.180Z,101786.50
2023-10-02T07:04:58.664Z,101791.53
2023-10-02T07:08:00.723Z,101785.03
2023-10-02T07:10:49.888Z,101774.28
2023-10-02T07:13:52.438Z,101774.84
2023-10-02T07:16:40.739Z,101776.41
2023-10-02T07:19:39.884Z,101781.28
2023-10-02T07:22:27.959Z,101781.84
2023-10-02T07:25:21.616Z,101783.16
2023-10-02T07:28:09.729Z,101779.31
2023-10-02T07:30:58.092Z,101788.47
2023-10-02T07:33:46.274Z,101781.00
2023-10-02T07:36:45.691Z,101784.00
2023-10-02T07:39:36.639Z,101788.50
2023-10-02T07:42:30.130Z,101785.19
2023-10-02T07:45:27.257Z,101779.00
2023-10-02T07:48:20.720Z,101786.91
2023-10-02T07:51:12.217Z,101779.03
2023-10-02T07:54:14.960Z,101778.22
2023-10-02T07:57:02.635Z,101785.56
2023-10-02T07:59:50.769Z,101784.06
2023-10-02T08:02:41.337Z,101782.81
2023-10-02T08:05:29.737Z,101776.06
2023-10-02T08:08:20.095Z,101773.75
2023-10-02T08:11:12.318Z,101771.50
2023-10-02T08:14:00.139Z,101773.84
2023-10-02T08:17:10.032Z,101769.09
2023-10-02T08:20:00.507Z,101780.22
2023-10-02T08:22:50.488Z,101787.75
2023-10-02T08:25:38.135Z,101792.94
2023-10-02T08:28:25.804Z,101798.34
2023-10-02T08:31:15.099Z,101795.69
2023-10-02T08:34:11.516Z,101805.03
2023-10-02T08:37:11.068Z,101796.78
2023-10-02T08:39:58.779Z,101797.22
2023-10-02T08:42:48.143Z,101806.56
2023-10-02T08:45:36.133Z,101803.97
2023-10-02T08:48:26.369Z,101787.94
2023-10-02T08:51:30.195Z,101782.19
2023-10-02T08:54:19.577Z,101780.09
2023-10-02T08:57:10.143Z,101780.91
2023-10-02T09:00:15.152Z,101787.19
2023-10-02T09:03:15.939Z,101788.03
2023-10-02T09:06:23.730Z,101778.31
2023-10-02T09:09:28.042Z,101773.75
2023-10-02T09:12:17.030Z,101775.59
2023-10-02T09:15:32.127Z,101771.28
2023-10-02T09:18:56.651Z,101767.06
2023-10-02T09:21:47.673Z,101782.31
2023-10-02T09:24:36.764Z,101777.25
2023-10-02T09:27:39.654Z,101778.47
2023-10-02T09:30:38.750Z,101790.78
2023-10-02T09:33:39.791Z,101784.28
2023-10-02T09:37:17.017Z,101777.03
2023-10-02T09:39:56.808Z,101777.63
2023-10-02T09:42:49.734Z,101769.41
2023-10-02T09:45:38.920Z,101762.88
2023-10-02T09:48:54.228Z,101765.66
2023-10-02T09:52:12.001Z,101762.75
2023-10-02T09:55:24.667Z,101767.81
2023-10-02T09:58:45.816Z,101769.47
2023-10-02T10:01:36.769Z,101774.66
2023-10-02T10:05:23.646Z,101766.81
2023-10-02T10:08:14.224Z,101760.47
2023-10-02T10:11:15.287Z,101769.25
2023-10-02T10:14:37.996Z,101764.84
2023-10-02T10:17:42.784Z,101768.53
2023-10-02T10:20:31.723Z,101758.66
2023-10-02T10:23:32.858Z,101756.53
2023-10-02T10:26:41.087Z,101745.84
2023-10-02T10:29:43.072Z,101748.22
2023-10-02T10:32:32.708Z,101747.41
2023-10-02T10:35:37.095Z,101743.28
2023-10-02T10:38:27.483Z,101748.16
2023-10-02T10:41:37.198Z,101750.16
2023-10-02T10:44:34.992Z,101746.34
2023-10-02T10:47:39.776Z,101739.19
2023-10-02T10:50:31.654Z,101743.25
2023-10-02T10:53:27.391Z,101745.06
2023-10-02T10:56:18.615Z,101741.41
2023-10-02T10:59:12.710Z,101744.66
2023-10-02T11:02:18.889Z,101744.94
2023-10-02T11:05:07.088Z,101738.63
2023-10-02T11:07:56.926Z,101736.22
2023-10-02T11:10:44.748Z,101745.34
2023-10-02T11:13:56.643Z,101737.06
2023-10-02T11:16:56.055Z,101736.22
2023-10-02T11:19:51.382Z,101734.25
2023-10-02T11:23:04.822Z,101725.94
2023-10-02T11:25:59.956Z,101722.84
2023-10-02T11:28:51.175Z,101719.63
2023-10-02T11:31:46.929Z,101711.03
2023-10-02T11:34:42.534Z,101711.03
2023-10-02T11:37:30.387Z,101709.75
2023-10-02T11:40:18.253Z,101700.59
2023-10-02T11:43:05.906Z,101713.56
2023-10-02T11:45:54.229Z,101710.47
2023-10-02T11:48:41.968Z,101708.66
2023-10-02T11:51:30.267Z,101707.22
2023-10-02T11:54:18.877Z,101700.91
2023-10-02T11:57:11.199Z,101696.38
2023-10-02T11:59:59.047Z,101691.00
2023-10-02T12:02:47.810Z,101692.50
2023-10-02T12:05:38.396Z,101685.28
2023-10-02T12:08:26.700Z,101690.44
2023-10-02T12:11:17.317Z,101689.69
2023-10-02T12:14:05.160Z,101676.41
2023-10-02T12:16:56.097Z,101680.22
2023-10-02T12:19:45.305Z,101671.78
2023-10-02T12:22:33.074Z,101675.16
2023-10-02T12:25:20.741Z,101675.41
2023-10-02T12:28:10.349Z,101675.66
2023-10-02T12:30:58.070Z,101667.31
2023-10-02T12:33:49.579Z,101667.84
2023-10-02T12:36:37.276Z,101664.56
2023-10-02T12:39:30.001Z,101659.75
2023-10-02T12:42:18.051Z,101649.97
2023-10-02T12:45:08.255Z,101653.44
2023-10-02T12:47:56.587Z,101654.09
2023-10-02T12:50:44.422Z,101635.50
2023-10-02T12:53:32.040Z,101640.25
2023-10-02T12:56:24.507Z,101630.59
2023-10-02T12:59:13.067Z,101633.06
2023-10-02T13:02:03.076Z,101628.94
2023-10-02T13:04:50.740Z,101623.41
2023-10-02T13:07:38.428Z,101608.16
2023-10-02T13:10:26.241Z,101609.00
2023-10-02T13:13:14.929Z,101612.84
2023-10-02T13:16:02.556Z,101613.84
2023-10-02T13:18:51.412Z,101612.00
2023-10-02T13:21:45.308Z,101609.16
2023-10-02T13:24:32.992Z,101605.84
2023-10-02T13:27:20.902Z,101597.03
2023-10-02T13:30:12.800Z,101602.78
2023-10-02T13:33:01.284Z,101595.03
2023-10-02T13:35:58.858Z,101588.00
2023-10-02T13:38:46.873Z,101580.28
2023-10-02T13:41:38.913Z,101571.56
2023-10-02T13:44:26.660Z,101574.25
2023-10-02T13:47:22.959Z,101568.19
2023-10-02T13:50:18.533Z,101570.84
2023-10-02T13:53:07.602Z,101558.31
2023-10-02T13:55:55.627Z,101558.16
2023-10-02T13:58:52.121Z,101558.16
2023-10-02T14:01:39.971Z,101553.31
2023-10-02T14:04:31.172Z,101546.66
2023-10-02T14:07:19.473Z,101553.88
2023-10-02T14:10:11.538Z,101551.91
2023-10-02T14:12:59.290Z,101542.22
2023-10-02T14:15:47.344Z,101530.16
2023-10-02T14:18:36.634Z,101523.97
2023-10-02T14:21:27.353Z,101522.97
2023-10-02T14:24:17.496Z,101524.78
2023-10-02T14:27:05.250Z,101520.28
2023-10-02T14:29:53.007Z,101521.44
2023-10-02T14:32:50.628Z,101514.72
2023-10-02T14:35:52.934Z,101497.44
2023-10-02T14:38:41.978Z,101508.00
2023-10-02T14:41:29.740Z,101495.94
2023-10-02T14:44:17.396Z,101501.34
2023-10-02T14:47:05.093Z,101493.38
2023-10-02T14:49:54.793Z,101498.78
2023-10-02T14:52:42.504Z,101494.44
2023-10-02T14:55:32.441Z,101492.28
2023-10-02T14:58:22.317Z,101492.09
2023-10-02T15:01:14.367Z,101486.78
2023-10-02T15:04:02.813Z,101478.16
2023-10-02T15:06:51.236Z,101479.78
2023-10-02T15:09:39.927Z,101471.78
2023-10-02T15:12:27.532Z,101468.50
2023-10-02T15:15:15.809Z,101471.25
2023-10-02T15:18:09.248Z,101463.75
2023-10-02T15:21:00.266Z,101458.41
2023-10-02T15:23:49.501Z,101454.84
2023-10-02T15:26:40.208Z,101461.94
2023-10-02T15:29:28.351Z,101453.44
2023-10-02T15:32:21.621Z,101446.06
2023-10-02T15:35:12.843Z,101433.75
2023-10-02T15:38:03.123Z,101437.06
2023-10-02T15:40:53.601Z,101437.28
2023-10-02T15:43:41.274Z,101436.97
2023-10-02T15:46:29.031Z,101436.53
2023-10-02T15:49:16.719Z,101424.28
2023-10-02T15:52:05.371Z,101422.19
2023-10-02T15:54:57.914Z,101416.03
2023-10-02T15:57:49.382Z,101414.28
2023-10-02T16:00:37.053Z,101411.25
2023-10-02T16:03:27.434Z,101410.03
2023-10-02T16:06:19.793Z,101410.78
2023-10-02T16:09:07.430Z,101406.34
2023-10-02T16:11:55.016Z,101393.31
2023-10-02T16:14:44.216Z,101391.03
2023-10-02T16:17:31.925Z,101393.44
2023-10-02T16:20:20.790Z,101402.13
2023-10-02T16:23:08.632Z,101396.03
2023-10-02T16:25:56.376Z,101391.78
2023-10-02T16:28:44.506Z,101392.63
2023-10-02T16:31:32.178Z,101382.06
2023-10-02T16:34:20.099Z,101377.69
2023-10-02T16:37:08.003Z,101378.28
2023-10-02T16:40:00.866Z,101375.91
2023-10-02T16:42:49.081Z,101365.44
2023-10-02T16:45:36.810Z,101360.31
2023-10-02T16:48:24.622Z,101360.41
2023-10-02T16:51:18.575Z,101357.47
2023-10-02T16:54:08.148Z,101357.38
2023-10-02T16:56:55.751Z,101352.41
2023-10-02T16:59:43.497Z,101353.66
2023-10-02T17:02:31.223Z,101350.72
2023-10-02T17:05:20.052Z,101346.63
2023-10-02T17:08:07.748Z,101346.16
2023-10-02T17:10:56.201Z,101356.06
2023-10-02T17:13:44.459Z,101347.28
2023-10-02T17:16:32.076Z,101343.16
2023-10-02T17:19:19.778Z,101352.22
2023-10-02T17:22:07.358Z,101364.78
2023-10-02T17:24:54.963Z,101364.13
2023-10-02T17:27:43.323Z,101363.34
2023-10-02T17:30:33.205Z,101358.06
2023-10-02T17:33:23.492Z,101357.50
2023-10-02T17:36:13.090Z,101353.88
2023-10-02T17:39:00.946Z,101351.09
2023-10-02T17:41:49.292Z,101346.66
2023-10-02T17:44:37.299Z,101344.00
2023-10-02T17:47:25.058Z,101345.72
2023-10-02T17:50:15.227Z,101346.56
2023-10-02T17:53:02.998Z,101344.06
2023-10-02T17:55:50.704Z,101353.47
2023-10-02T17:58:38.340Z,101351.47
2023-10-02T18:01:26.074Z,101337.00
2023-10-02T18:04:14.240Z,101333.38
2023-10-02T18:07:02.976Z,101333.22
2023-10-02T18:09:54.495Z,101332.00
2023-10-02T18:12:43.165Z,101330.03
2023-10-02T18:15:30.785Z,101332.28
2023-10-02T18:18:20.209Z,101331.97
2023-10-02T18:21:07.809Z,101328.19
2023-10-02T18:23:55.563Z,101330.41
2023-10-02T18:26:43.737Z,101327.59
2023-10-02T18:29:32.173Z,101325.63
2023-10-02T18:32:20.377Z,101326.25
2023-10-02T18:35:10.379Z,101316.28
2023-10-02T18:37:58.289Z,101317.81
2023-10-02T18:40:47.702Z,101317.66
2023-10-02T18:43:36.773Z,101310.06
2023-10-02T18:46:24.345Z,101306.13
2023-10-02T18:49:15.916Z,101300.50
2023-10-02T18:52:05.243Z,101280.84
2023-10-02T18:54:54.950Z,101287.31
2023-10-02T18:57:43.080Z,101281.25
2023-10-02T19:00:30.704Z,101283.91
2023-10-02T19:03:18.469Z,101280.56
2023-10-02T19:06:06.239Z,101279.31
2023-10-02T19:08:54.543Z,101271.78
2023-10-02T19:11:43.837Z,101263.66
2023-10-02T19:14:32.391Z,101263.66
2023-10-02T19:17:23.490Z,101248.78
2023-10-02T19:20:13.263Z,101252.44
2023-10-02T19:23:01.052Z,101256.34
2023-10-02T19:25:48.986Z,101253.25
2023-10-02T19:28:37.182Z,101247.22
2023-10-02T19:31:24.970Z,101244.81
2023-10-02T19:34:12.626Z,101247.88
2023-10-02T19:37:00.260Z,101243.41
2023-10-02T19:39:47.857Z,101235.56
2023-10-02T19:42:35.603Z,101226.88
2023-10-02T19:45:23.175Z,101224.47
2023-10-02T19:48:10.858Z,101216.78
2023-10-02T19:50:58.441Z,101207.41
2023-10-02T19:53:46.147Z,101212.13
2023-10-02T19:56:34.511Z,101209.84
2023-10-02T19:59:23.763Z,101200.88
2023-10-02T20:02:12.961Z,101197.66
2023-10-02T20:05:00.697Z,101195.41
2023-10-02T20:07:48.494Z,101197.50
2023-10-02T20:10:36.356Z,101193.41
2023-10-02T20:13:24.296Z,101194.63
2023-10-02T20:16:11.967Z,101198.56
2023-10-02T20:18:59.969Z,101200.47
2023-10-02T20:21:47.772Z,101200.75
2023-10-02T20:24:39.882Z,101190.38
2023-10-02T20:27:28.864Z,101183.53
2023-10-02T20:30:17.529Z,101180.41
2023-10-02T20:33:10.208Z,101182.63
2023-10-02T20:35:57.920Z,101184.72
2023-10-02T20:38:45.677Z,101182.44
2023-10-02T20:41:34.139Z,101175.97
2023-10-02T20:44:21.921Z,101171.59
2023-10-02T20:47:15.329Z,101168.38
2023-10-02T20:50:04.469Z,101168.38
2023-10-02T20:52:52.359Z,101176.47
2023-10-02T20:55:40.858Z,101164.75
2023-10-02T20:58:28.621Z,101161.25
2023-10-02T21:01:16.728Z,101163.75
2023-10-02T21:04:04.779Z,101164.63
2023-10-02T21:06:52.884Z,101166.28
2023-10-02T21:09:40.575Z,101152.19
2023-10-02T21:12:28.180Z,101142.53
2023-10-02T21:15:15.971Z,101138.19
2023-10-02T21:18:06.614Z,101134.81
2023-10-02T21:20:54.543Z,101126.84
2023-10-02T21:23:42.815Z,101123.34
2023-10-02T21:26:30.541Z,101122.66
2023-10-02T21:29:18.353Z,101111.31
2023-10-02T21:32:06.310Z,101106.25
2023-10-02T21:34:53.973Z,101099.28
2023-10-02T21:37:42.591Z,101093.38
2023-10-02T21:40:30.227Z,101092.53
2023-10-02T21:43:17.922Z,101081.91
2023-10-02T21:46:05.750Z,101072.38
2023-10-02T21:48:53.422Z,101069.75
2023-10-02T21:51:41.070Z,101068.91
2023-10-02T21:54:28.754Z,101064.69
2023-10-02T21:57:17.105Z,101060.34
2023-10-02T22:00:29.284Z,101053.47
2023-10-02T22:03:19.228Z,101048.41
2023-10-02T22:06:10.202Z,101047.59
2023-10-02T22:08:57.837Z,101049.50
2023-10-02T22:11:47.345Z,101032.75
2023-10-02T22:14:36.211Z,101033.84
2023-10-02T22:17:24.084Z,101032.06
2023-10-02T22:20:12.836Z,101026.88
2023-10-02T22:23:00.669Z,101010.22
2023-10-02T22:25:48.247Z,101010.94
2023-10-02T22:28:35.986Z,101006.47
2023-10-02T22:31:24.459Z,101005.50
2023-10-02T22:34:13.194Z,101006.34
2023-10-02T22:37:01.906Z,101001.88
2023-10-02T22:39:50.588Z,100990.28
2023-10-02T22:42:38.194Z,100992.94
2023-10-02T22:45:25.839Z,100978.97
2023-10-02T22:48:15.461Z,100985.81
2023-10-02T22:51:06.034Z,100979.66
2023-10-02T22:53:53.798Z,100971.97
2023-10-02T22:56:41.555Z,100980.06
2023-10-02T22:59:29.275Z,100965.22
2023-10-02T23:02:17.678Z,100959.22
2023-10-02T23:05:09.720Z,100964.81
2023-10-02T23:07:57.394Z,100952.63
2023-10-02T23:10:45.582Z,100949.28
2023-10-02T23:13:34.720Z,100941.72
2023-10-02T23:16:23.690Z,100948.97
2023-10-02T23:19:11.395Z,100941.41
2023-10-02T23:21:59.041Z,100938.19
2023-10-02T23:24:46.604Z,100924.19
2023-10-02T23:27:34.800Z,100918.06
2023-10-02T23:30:23.837Z,100916.63
2023-10-02T23:33:11.910Z,100904.47
2023-10-02T23:35:59.483Z,100904.63
2023-10-02T23:38:47.200Z,100898.00
2023-10-02T23:41:35.027Z,100898.84
2023-10-02T23:44:25.376Z,100893.66
2023-10-02T23:47:15.205Z,100890.06
2023-10-02T23:50:02.859Z,100883.19
2023-10-02T23:52:54.845Z,100882.94
2023-10-02T23:55:44.657Z,100873.19
2023-10-02T23:58:33.461Z,100865.91
